Terminal Aerodrome Forecast
Issued by NWS Twin Cities, MN

Home | Current Version | Previous Version | Text Only | Print | Product List | Glossary Off
Versions: 1 2 3 4 5 6 7 8 9 10 11 12 13 14 15 16 17 18 19 20 21 22 23 24 25 26 27 28

000
FTUS43 KMPX 222300
TAFMSP
TAF
KMSP 222339Z 2300/2406 03008KT P6SM SCT250
     FM230200 08006KT P6SM BKN200
     FM230400 11006KT P6SM SCT100 BKN150
     FM231000 12009KT P6SM SCT050 BKN070
     FM231500 14014G21KT 6SM -RA BR SCT025 OVC050
     FM240000 12013G18KT 4SM -RA BR BKN025=

USA.gov is the U.S. government's official web portal to all federal, state and local government web resources and services.